sensor_id;sensor_type;location;lat;lon;timestamp;P1;durP1;ratioP1;P2;durP2;ratioP2
10880;SDS011;5493;48.884;8.338;2023-09-18T00:01:39;7.38;;;2.63;;
10880;SDS011;5493;48.884;8.338;2023-09-18T00:04:05;2.78;;;2.40;;
10880;SDS011;5493;48.884;8.338;2023-09-18T00:06:32;4.10;;;2.30;;
10880;SDS011;5493;48.884;8.338;2023-09-18T00:08:59;4.47;;;2.30;;
10880;SDS011;5493;48.884;8.338;2023-09-18T00:11:25;5.38;;;2.40;;
10880;SDS011;5493;48.884;8.338;2023-09-18T00:13:54;3.38;;;2.20;;
10880;SDS011;5493;48.884;8.338;2023-09-18T00:16:20;4.70;;;2.38;;
10880;SDS011;5493;48.884;8.338;2023-09-18T00:18:47;4.00;;;2.20;;
10880;SDS011;5493;48.884;8.338;2023-09-18T00:21:13;4.03;;;2.15;;
10880;SDS011;5493;48.884;8.338;2023-09-18T00:23:41;4.15;;;2.10;;
10880;SDS011;5493;48.884;8.338;2023-09-18T00:26:08;4.00;;;2.30;;
10880;SDS011;5493;48.884;8.338;2023-09-18T00:28:34;3.17;;;2.17;;
10880;SDS011;5493;48.884;8.338;2023-09-18T00:31:02;4.97;;;2.10;;
10880;SDS011;5493;48.884;8.338;2023-09-18T00:33:28;5.80;;;2.15;;
10880;SDS011;5493;48.884;8.338;2023-09-18T00:35:55;6.03;;;2.17;;
10880;SDS011;5493;48.884;8.338;2023-09-18T00:38:22;4.60;;;2.15;;
10880;SDS011;5493;48.884;8.338;2023-09-18T00:40:48;4.55;;;2.30;;
10880;SDS011;5493;48.884;8.338;2023-09-18T00:43:15;3.53;;;2.00;;
10880;SDS011;5493;48.884;8.338;2023-09-18T00:45:44;5.22;;;2.10;;
10880;SDS011;5493;48.884;8.338;2023-09-18T00:48:12;2.90;;;2.10;;
10880;SDS011;5493;48.884;8.338;2023-09-18T00:50:40;3.03;;;2.38;;
10880;SDS011;5493;48.884;8.338;2023-09-18T00:53:07;3.85;;;1.98;;
10880;SDS011;5493;48.884;8.338;2023-09-18T00:55:34;5.13;;;2.45;;
10880;SDS011;5493;48.884;8.338;2023-09-18T00:58:03;3.08;;;2.22;;
10880;SDS011;5493;48.884;8.338;2023-09-18T01:00:30;4.45;;;2.50;;
10880;SDS011;5493;48.884;8.338;2023-09-18T01:02:56;4.30;;;3.00;;
10880;SDS011;5493;48.884;8.338;2023-09-18T01:05:24;6.10;;;2.35;;
10880;SDS011;5493;48.884;8.338;2023-09-18T01:07:51;5.82;;;2.63;;
10880;SDS011;5493;48.884;8.338;2023-09-18T01:10:17;5.28;;;2.30;;
10880;SDS011;5493;48.884;8.338;2023-09-18T01:12:45;5.35;;;2.33;;
10880;SDS011;5493;48.884;8.338;2023-09-18T01:15:16;2.88;;;1.95;;
10880;SDS011;5493;48.884;8.338;2023-09-18T01:17:48;5.53;;;2.38;;
10880;SDS011;5493;48.884;8.338;2023-09-18T01:20:14;3.72;;;1.83;;
10880;SDS011;5493;48.884;8.338;2023-09-18T01:22:42;7.53;;;2.25;;
10880;SDS011;5493;48.884;8.338;2023-09-18T01:25:09;3.83;;;2.53;;
10880;SDS011;5493;48.884;8.338;2023-09-18T01:27:36;5.60;;;2.33;;
10880;SDS011;5493;48.884;8.338;2023-09-18T01:30:02;4.70;;;2.10;;
10880;SDS011;5493;48.884;8.338;2023-09-18T01:32:30;3.70;;;2.25;;
10880;SDS011;5493;48.884;8.338;2023-09-18T01:34:59;3.55;;;2.03;;
10880;SDS011;5493;48.884;8.338;2023-09-18T01:37:27;5.70;;;2.70;;
10880;SDS011;5493;48.884;8.338;2023-09-18T01:39:57;4.15;;;2.17;;
10880;SDS011;5493;48.884;8.338;2023-09-18T01:42:24;6.32;;;2.40;;
10880;SDS011;5493;48.884;8.338;2023-09-18T01:44:51;4.57;;;2.50;;
10880;SDS011;5493;48.884;8.338;2023-09-18T01:47:19;5.15;;;2.63;;
10880;SDS011;5493;48.884;8.338;2023-09-18T01:49:48;5.60;;;2.70;;
10880;SDS011;5493;48.884;8.338;2023-09-18T01:52:15;5.25;;;2.72;;
10880;SDS011;5493;48.884;8.338;2023-09-18T01:54:41;5.95;;;2.75;;
10880;SDS011;5493;48.884;8.338;2023-09-18T01:57:09;3.70;;;2.55;;
10880;SDS011;5493;48.884;8.338;2023-09-18T01:59:37;6.43;;;3.42;;
10880;SDS011;5493;48.884;8.338;2023-09-18T02:02:04;8.13;;;2.67;;
10880;SDS011;5493;48.884;8.338;2023-09-18T02:04:32;4.80;;;2.40;;
10880;SDS011;5493;48.884;8.338;2023-09-18T02:06:59;6.57;;;2.60;;
10880;SDS011;5493;48.884;8.338;2023-09-18T02:09:25;4.03;;;2.60;;
10880;SDS011;5493;48.884;8.338;2023-09-18T02:11:52;5.60;;;2.88;;
10880;SDS011;5493;48.884;8.338;2023-09-18T02:14:20;3.55;;;2.30;;
10880;SDS011;5493;48.884;8.338;2023-09-18T02:16:46;4.55;;;2.58;;
10880;SDS011;5493;48.884;8.338;2023-09-18T02:19:14;4.63;;;2.22;;
10880;SDS011;5493;48.884;8.338;2023-09-18T02:21:42;3.40;;;2.30;;
10880;SDS011;5493;48.884;8.338;2023-09-18T02:24:09;3.88;;;2.25;;
10880;SDS011;5493;48.884;8.338;2023-09-18T02:26:35;4.25;;;2.53;;
10880;SDS011;5493;48.884;8.338;2023-09-18T02:29:03;5.07;;;2.28;;
10880;SDS011;5493;48.884;8.338;2023-09-18T02:31:31;4.35;;;2.25;;
10880;SDS011;5493;48.884;8.338;2023-09-18T02:33:58;3.15;;;2.25;;
10880;SDS011;5493;48.884;8.338;2023-09-18T02:36:24;6.00;;;2.40;;
10880;SDS011;5493;48.884;8.338;2023-09-18T02:38:51;3.47;;;2.30;;
10880;SDS011;5493;48.884;8.338;2023-09-18T02:41:17;3.13;;;2.05;;
10880;SDS011;5493;48.884;8.338;2023-09-18T02:43:44;2.85;;;1.92;;
10880;SDS011;5493;48.884;8.338;2023-09-18T02:46:10;6.28;;;2.15;;
10880;SDS011;5493;48.884;8.338;2023-09-18T02:48:38;6.22;;;2.20;;
10880;SDS011;5493;48.884;8.338;2023-09-18T02:51:05;4.75;;;2.33;;
10880;SDS011;5493;48.884;8.338;2023-09-18T02:53:31;4.80;;;2.17;;
10880;SDS011;5493;48.884;8.338;2023-09-18T02:55:58;4.00;;;2.50;;
10880;SDS011;5493;48.884;8.338;2023-09-18T02:58:26;4.72;;;2.70;;
10880;SDS011;5493;48.884;8.338;2023-09-18T03:00:54;6.65;;;2.50;;
10880;SDS011;5493;48.884;8.338;2023-09-18T03:03:22;5.90;;;2.53;;
10880;SDS011;5493;48.884;8.338;2023-09-18T03:05:51;6.38;;;2.72;;
10880;SDS011;5493;48.884;8.338;2023-09-18T03:08:17;8.23;;;2.42;;
10880;SDS011;5493;48.884;8.338;2023-09-18T03:10:44;4.22;;;2.42;;
10880;SDS011;5493;48.884;8.338;2023-09-18T03:13:11;3.75;;;2.47;;
10880;SDS011;5493;48.884;8.338;2023-09-18T03:15:40;3.95;;;2.20;;
10880;SDS011;5493;48.884;8.338;2023-09-18T03:18:10;4.40;;;2.60;;
10880;SDS011;5493;48.884;8.338;2023-09-18T03:20:36;6.10;;;2.22;;
10880;SDS011;5493;48.884;8.338;2023-09-18T03:23:04;3.80;;;2.03;;
10880;SDS011;5493;48.884;8.338;2023-09-18T03:25:31;5.75;;;2.42;;
10880;SDS011;5493;48.884;8.338;2023-09-18T03:27:57;3.88;;;2.00;;
10880;SDS011;5493;48.884;8.338;2023-09-18T03:30:24;4.72;;;2.53;;
10880;SDS011;5493;48.884;8.338;2023-09-18T03:32:51;7.65;;;2.60;;
10880;SDS011;5493;48.884;8.338;2023-09-18T03:35:18;3.67;;;2.20;;
10880;SDS011;5493;48.884;8.338;2023-09-18T03:37:45;3.97;;;2.40;;
10880;SDS011;5493;48.884;8.338;2023-09-18T03:40:13;8.48;;;3.05;;
10880;SDS011;5493;48.884;8.338;2023-09-18T03:42:40;4.50;;;2.30;;
10880;SDS011;5493;48.884;8.338;2023-09-18T03:45:07;6.80;;;2.45;;
10880;SDS011;5493;48.884;8.338;2023-09-18T03:47:35;7.55;;;2.72;;
10880;SDS011;5493;48.884;8.338;2023-09-18T03:50:02;10.32;;;2.92;;
10880;SDS011;5493;48.884;8.338;2023-09-18T03:52:29;7.15;;;2.08;;
10880;SDS011;5493;48.884;8.338;2023-09-18T03:54:56;4.80;;;2.45;;
10880;SDS011;5493;48.884;8.338;2023-09-18T03:57:24;6.72;;;2.60;;
10880;SDS011;5493;48.884;8.338;2023-09-18T03:59:50;5.55;;;2.60;;
10880;SDS011;5493;48.884;8.338;2023-09-18T04:02:17;7.68;;;2.50;;
10880;SDS011;5493;48.884;8.338;2023-09-18T04:04:43;11.43;;;2.83;;
10880;SDS011;5493;48.884;8.338;2023-09-18T04:07:10;3.88;;;1.80;;
10880;SDS011;5493;48.884;8.338;2023-09-18T04:09:41;6.57;;;2.70;;
10880;SDS011;5493;48.884;8.338;2023-09-18T04:12:07;5.05;;;2.22;;
10880;SDS011;5493;48.884;8.338;2023-09-18T04:14:36;6.70;;;2.50;;
10880;SDS011;5493;48.884;8.338;2023-09-18T04:17:02;7.03;;;2.17;;
10880;SDS011;5493;48.884;8.338;2023-09-18T04:19:29;5.05;;;2.35;;
10880;SDS011;5493;48.884;8.338;2023-09-18T04:21:56;7.78;;;2.08;;
10880;SDS011;5493;48.884;8.338;2023-09-18T04:24:23;7.38;;;2.20;;
10880;SDS011;5493;48.884;8.338;2023-09-18T04:26:49;5.03;;;2.00;;
10880;SDS011;5493;48.884;8.338;2023-09-18T04:29:16;5.93;;;1.90;;
10880;SDS011;5493;48.884;8.338;2023-09-18T04:31:45;3.77;;;1.80;;
10880;SDS011;5493;48.884;8.338;2023-09-18T04:34:12;6.47;;;2.10;;
10880;SDS011;5493;48.884;8.338;2023-09-18T04:36:38;7.27;;;2.00;;
10880;SDS011;5493;48.884;8.338;2023-09-18T04:39:05;3.88;;;1.67;;
10880;SDS011;5493;48.884;8.338;2023-09-18T04:41:32;5.07;;;1.63;;
10880;SDS011;5493;48.884;8.338;2023-09-18T04:43:58;7.38;;;1.83;;
10880;SDS011;5493;48.884;8.338;2023-09-18T04:46:25;7.68;;;1.98;;
10880;SDS011;5493;48.884;8.338;2023-09-18T04:48:53;4.20;;;1.70;;
10880;SDS011;5493;48.884;8.338;2023-09-18T04:51:19;4.00;;;1.50;;
10880;SDS011;5493;48.884;8.338;2023-09-18T04:53:46;6.75;;;1.35;;
10880;SDS011;5493;48.884;8.338;2023-09-18T04:56:12;4.78;;;1.40;;
10880;SDS011;5493;48.884;8.338;2023-09-18T04:58:39;4.20;;;1.40;;
10880;SDS011;5493;48.884;8.338;2023-09-18T05:01:06;6.28;;;1.98;;
10880;SDS011;5493;48.884;8.338;2023-09-18T05:03:33;5.25;;;2.15;;
10880;SDS011;5493;48.884;8.338;2023-09-18T05:06:01;6.57;;;1.83;;
10880;SDS011;5493;48.884;8.338;2023-09-18T05:08:29;5.35;;;1.60;;
10880;SDS011;5493;48.884;8.338;2023-09-18T05:10:56;6.80;;;1.90;;
10880;SDS011;5493;48.884;8.338;2023-09-18T05:13:23;5.63;;;1.98;;
10880;SDS011;5493;48.884;8.338;2023-09-18T05:15:49;3.80;;;1.60;;
10880;SDS011;5493;48.884;8.338;2023-09-18T05:18:16;5.95;;;1.75;;
10880;SDS011;5493;48.884;8.338;2023-09-18T05:20:42;4.00;;;1.25;;
10880;SDS011;5493;48.884;8.338;2023-09-18T05:23:10;3.95;;;1.70;;
10880;SDS011;5493;48.884;8.338;2023-09-18T05:25:37;2.47;;;1.17;;
10880;SDS011;5493;48.884;8.338;2023-09-18T05:28:06;3.78;;;1.50;;
10880;SDS011;5493;48.884;8.338;2023-09-18T05:30:34;4.82;;;1.42;;
10880;SDS011;5493;48.884;8.338;2023-09-18T05:33:03;7.10;;;1.50;;
10880;SDS011;5493;48.884;8.338;2023-09-18T05:35:31;4.75;;;1.38;;
10880;SDS011;5493;48.884;8.338;2023-09-18T05:37:58;3.78;;;1.50;;
10880;SDS011;5493;48.884;8.338;2023-09-18T05:40:26;5.72;;;1.42;;
10880;SDS011;5493;48.884;8.338;2023-09-18T05:42:53;4.32;;;1.40;;
10880;SDS011;5493;48.884;8.338;2023-09-18T05:45:20;5.72;;;1.67;;
10880;SDS011;5493;48.884;8.338;2023-09-18T05:47:47;4.20;;;1.63;;
10880;SDS011;5493;48.884;8.338;2023-09-18T05:50:13;8.95;;;1.90;;
10880;SDS011;5493;48.884;8.338;2023-09-18T05:52:41;5.25;;;2.33;;
10880;SDS011;5493;48.884;8.338;2023-09-18T05:55:08;5.93;;;1.63;;
10880;SDS011;5493;48.884;8.338;2023-09-18T05:57:37;6.68;;;1.90;;
10880;SDS011;5493;48.884;8.338;2023-09-18T06:00:04;4.82;;;2.20;;
10880;SDS011;5493;48.884;8.338;2023-09-18T06:02:31;5.40;;;1.80;;
10880;SDS011;5493;48.884;8.338;2023-09-18T06:04:58;4.38;;;2.13;;
10880;SDS011;5493;48.884;8.338;2023-09-18T06:07:26;5.55;;;1.98;;
10880;SDS011;5493;48.884;8.338;2023-09-18T06:09:52;8.88;;;2.15;;
10880;SDS011;5493;48.884;8.338;2023-09-18T06:12:19;4.78;;;2.05;;
10880;SDS011;5493;48.884;8.338;2023-09-18T06:14:48;3.50;;;1.95;;
10880;SDS011;5493;48.884;8.338;2023-09-18T06:17:15;6.07;;;2.00;;
10880;SDS011;5493;48.884;8.338;2023-09-18T06:19:41;5.75;;;2.13;;
10880;SDS011;5493;48.884;8.338;2023-09-18T06:22:08;5.43;;;2.10;;
10880;SDS011;5493;48.884;8.338;2023-09-18T06:24:35;4.35;;;2.05;;
10880;SDS011;5493;48.884;8.338;2023-09-18T06:27:02;4.30;;;1.95;;
10880;SDS011;5493;48.884;8.338;2023-09-18T06:29:29;4.38;;;2.05;;
10880;SDS011;5493;48.884;8.338;2023-09-18T06:31:57;3.20;;;1.67;;
10880;SDS011;5493;48.884;8.338;2023-09-18T06:34:24;8.27;;;2.17;;
10880;SDS011;5493;48.884;8.338;2023-09-18T06:36:50;4.50;;;2.00;;
10880;SDS011;5493;48.884;8.338;2023-09-18T06:39:17;6.47;;;2.33;;
10880;SDS011;5493;48.884;8.338;2023-09-18T06:41:45;3.20;;;1.88;;
10880;SDS011;5493;48.884;8.338;2023-09-18T06:44:11;4.18;;;1.88;;
10880;SDS011;5493;48.884;8.338;2023-09-18T06:46:38;7.15;;;2.00;;
10880;SDS011;5493;48.884;8.338;2023-09-18T06:49:07;7.00;;;1.70;;
10880;SDS011;5493;48.884;8.338;2023-09-18T06:51:33;4.57;;;1.83;;
10880;SDS011;5493;48.884;8.338;2023-09-18T06:54:00;5.25;;;1.60;;
10880;SDS011;5493;48.884;8.338;2023-09-18T06:56:27;7.15;;;2.10;;
10880;SDS011;5493;48.884;8.338;2023-09-18T06:58:54;4.35;;;1.75;;
10880;SDS011;5493;48.884;8.338;2023-09-18T07:01:20;5.32;;;1.98;;
10880;SDS011;5493;48.884;8.338;2023-09-18T07:03:47;5.13;;;1.70;;
10880;SDS011;5493;48.884;8.338;2023-09-18T07:06:16;4.43;;;1.73;;
10880;SDS011;5493;48.884;8.338;2023-09-18T07:08:45;7.78;;;1.85;;
10880;SDS011;5493;48.884;8.338;2023-09-18T07:11:12;5.85;;;1.90;;
10880;SDS011;5493;48.884;8.338;2023-09-18T07:13:38;6.05;;;1.75;;
10880;SDS011;5493;48.884;8.338;2023-09-18T07:16:05;3.92;;;1.60;;
10880;SDS011;5493;48.884;8.338;2023-09-18T07:18:32;3.90;;;1.10;;
10880;SDS011;5493;48.884;8.338;2023-09-18T07:20:58;2.90;;;1.33;;
10880;SDS011;5493;48.884;8.338;2023-09-18T07:23:26;2.25;;;1.10;;
10880;SDS011;5493;48.884;8.338;2023-09-18T07:25:53;2.95;;;1.02;;
10880;SDS011;5493;48.884;8.338;2023-09-18T07:28:20;2.00;;;1.15;;
10880;SDS011;5493;48.884;8.338;2023-09-18T07:30:47;6.20;;;1.58;;
10880;SDS011;5493;48.884;8.338;2023-09-18T07:33:13;1.85;;;1.00;;
10880;SDS011;5493;48.884;8.338;2023-09-18T07:35:44;4.10;;;1.27;;
10880;SDS011;5493;48.884;8.338;2023-09-18T07:38:12;1.30;;;1.00;;
10880;SDS011;5493;48.884;8.338;2023-09-18T07:40:40;3.95;;;0.90;;
10880;SDS011;5493;48.884;8.338;2023-09-18T07:43:06;1.40;;;0.85;;
10880;SDS011;5493;48.884;8.338;2023-09-18T07:45:33;0.98;;;0.73;;
10880;SDS011;5493;48.884;8.338;2023-09-18T07:48:00;2.53;;;0.93;;
10880;SDS011;5493;48.884;8.338;2023-09-18T07:50:27;1.40;;;0.77;;
10880;SDS011;5493;48.884;8.338;2023-09-18T07:52:53;1.15;;;0.90;;
10880;SDS011;5493;48.884;8.338;2023-09-18T07:55:20;1.77;;;0.73;;
10880;SDS011;5493;48.884;8.338;2023-09-18T07:57:48;3.55;;;0.95;;
10880;SDS011;5493;48.884;8.338;2023-09-18T08:00:16;3.40;;;0.90;;
10880;SDS011;5493;48.884;8.338;2023-09-18T08:02:43;1.52;;;1.10;;
10880;SDS011;5493;48.884;8.338;2023-09-18T08:05:11;2.80;;;1.45;;
10880;SDS011;5493;48.884;8.338;2023-09-18T08:07:38;2.35;;;0.90;;
10880;SDS011;5493;48.884;8.338;2023-09-18T08:10:06;2.20;;;0.90;;
10880;SDS011;5493;48.884;8.338;2023-09-18T08:12:33;1.00;;;0.82;;
10880;SDS011;5493;48.884;8.338;2023-09-18T08:15:01;2.83;;;0.88;;
10880;SDS011;5493;48.884;8.338;2023-09-18T08:17:30;2.38;;;0.60;;
10880;SDS011;5493;48.884;8.338;2023-09-18T08:19:56;3.22;;;0.80;;
10880;SDS011;5493;48.884;8.338;2023-09-18T08:22:23;1.60;;;1.02;;
10880;SDS011;5493;48.884;8.338;2023-09-18T08:24:50;1.45;;;1.05;;
10880;SDS011;5493;48.884;8.338;2023-09-18T08:27:17;2.17;;;0.80;;
10880;SDS011;5493;48.884;8.338;2023-09-18T08:29:44;3.15;;;1.13;;
10880;SDS011;5493;48.884;8.338;2023-09-18T08:32:13;1.48;;;0.73;;
10880;SDS011;5493;48.884;8.338;2023-09-18T08:34:40;2.78;;;0.52;;
10880;SDS011;5493;48.884;8.338;2023-09-18T08:37:06;6.32;;;1.00;;
10880;SDS011;5493;48.884;8.338;2023-09-18T08:39:34;2.47;;;0.80;;
10880;SDS011;5493;48.884;8.338;2023-09-18T08:42:03;3.50;;;0.90;;
10880;SDS011;5493;48.884;8.338;2023-09-18T08:44:30;3.05;;;1.30;;
10880;SDS011;5493;48.884;8.338;2023-09-18T08:46:57;1.77;;;1.02;;
10880;SDS011;5493;48.884;8.338;2023-09-18T08:49:26;3.38;;;1.23;;
10880;SDS011;5493;48.884;8.338;2023-09-18T08:51:55;3.10;;;1.15;;
10880;SDS011;5493;48.884;8.338;2023-09-18T08:54:22;4.13;;;1.60;;
10880;SDS011;5493;48.884;8.338;2023-09-18T08:56:50;4.95;;;1.15;;
10880;SDS011;5493;48.884;8.338;2023-09-18T08:59:16;2.38;;;1.00;;
10880;SDS011;5493;48.884;8.338;2023-09-18T09:01:44;3.03;;;1.10;;
10880;SDS011;5493;48.884;8.338;2023-09-18T09:04:10;2.45;;;0.93;;
10880;SDS011;5493;48.884;8.338;2023-09-18T09:06:38;1.33;;;0.80;;
10880;SDS011;5493;48.884;8.338;2023-09-18T09:09:05;3.10;;;1.08;;
10880;SDS011;5493;48.884;8.338;2023-09-18T09:11:32;2.53;;;0.88;;
10880;SDS011;5493;48.884;8.338;2023-09-18T09:14:09;3.75;;;1.52;;
10880;SDS011;5493;48.884;8.338;2023-09-18T09:16:38;4.18;;;1.20;;
10880;SDS011;5493;48.884;8.338;2023-09-18T09:19:05;2.45;;;0.90;;
10880;SDS011;5493;48.884;8.338;2023-09-18T09:21:40;2.60;;;1.05;;
10880;SDS011;5493;48.884;8.338;2023-09-18T09:24:08;1.52;;;0.73;;
10880;SDS011;5493;48.884;8.338;2023-09-18T09:26:38;4.05;;;1.00;;
10880;SDS011;5493;48.884;8.338;2023-09-18T09:29:14;1.98;;;0.90;;
10880;SDS011;5493;48.884;8.338;2023-09-18T09:31:43;4.13;;;0.80;;
10880;SDS011;5493;48.884;8.338;2023-09-18T09:34:10;1.42;;;0.75;;
10880;SDS011;5493;48.884;8.338;2023-09-18T09:36:41;1.65;;;0.80;;
10880;SDS011;5493;48.884;8.338;2023-09-18T09:39:17;1.55;;;0.70;;
10880;SDS011;5493;48.884;8.338;2023-09-18T09:41:45;2.35;;;0.75;;
10880;SDS011;5493;48.884;8.338;2023-09-18T09:44:12;2.75;;;1.42;;
10880;SDS011;5493;48.884;8.338;2023-09-18T09:46:45;2.55;;;1.02;;
10880;SDS011;5493;48.884;8.338;2023-09-18T09:49:12;3.53;;;0.77;;
10880;SDS011;5493;48.884;8.338;2023-09-18T09:51:42;1.02;;;0.70;;
10880;SDS011;5493;48.884;8.338;2023-09-18T09:54:08;1.65;;;1.05;;
10880;SDS011;5493;48.884;8.338;2023-09-18T09:56:42;0.93;;;0.77;;
10880;SDS011;5493;48.884;8.338;2023-09-18T09:59:10;2.10;;;0.93;;
10880;SDS011;5493;48.884;8.338;2023-09-18T10:01:38;1.95;;;0.73;;
10880;SDS011;5493;48.884;8.338;2023-09-18T10:04:06;0.88;;;0.63;;
10880;SDS011;5493;48.884;8.338;2023-09-18T10:06:36;2.53;;;0.90;;
10880;SDS011;5493;48.884;8.338;2023-09-18T10:09:05;2.35;;;0.90;;
10880;SDS011;5493;48.884;8.338;2023-09-18T10:11:36;1.75;;;0.70;;
10880;SDS011;5493;48.884;8.338;2023-09-18T10:14:07;1.65;;;0.90;;
10880;SDS011;5493;48.884;8.338;2023-09-18T10:16:38;3.10;;;1.13;;
10880;SDS011;5493;48.884;8.338;2023-09-18T10:19:11;1.52;;;0.73;;
10880;SDS011;5493;48.884;8.338;2023-09-18T10:21:50;1.55;;;1.08;;
10880;SDS011;5493;48.884;8.338;2023-09-18T10:24:28;2.33;;;0.77;;
10880;SDS011;5493;48.884;8.338;2023-09-18T10:26:58;2.33;;;0.68;;
10880;SDS011;5493;48.884;8.338;2023-09-18T10:29:28;3.03;;;0.70;;
10880;SDS011;5493;48.884;8.338;2023-09-18T10:31:55;1.17;;;0.70;;
10880;SDS011;5493;48.884;8.338;2023-09-18T10:34:23;2.25;;;0.90;;
10880;SDS011;5493;48.884;8.338;2023-09-18T10:36:51;1.05;;;0.57;;
10880;SDS011;5493;48.884;8.338;2023-09-18T10:39:19;1.83;;;0.93;;
10880;SDS011;5493;48.884;8.338;2023-09-18T10:41:51;4.53;;;1.83;;
10880;SDS011;5493;48.884;8.338;2023-09-18T10:44:18;1.35;;;0.93;;
10880;SDS011;5493;48.884;8.338;2023-09-18T10:46:45;1.52;;;1.00;;
10880;SDS011;5493;48.884;8.338;2023-09-18T10:49:12;1.92;;;0.75;;
10880;SDS011;5493;48.884;8.338;2023-09-18T10:51:39;1.38;;;0.73;;
10880;SDS011;5493;48.884;8.338;2023-09-18T10:54:07;2.45;;;0.88;;
10880;SDS011;5493;48.884;8.338;2023-09-18T10:56:34;1.02;;;0.70;;
10880;SDS011;5493;48.884;8.338;2023-09-18T10:59:02;2.92;;;0.90;;
10880;SDS011;5493;48.884;8.338;2023-09-18T11:01:34;1.65;;;0.73;;
10880;SDS011;5493;48.884;8.338;2023-09-18T11:04:02;2.20;;;0.82;;
10880;SDS011;5493;48.884;8.338;2023-09-18T11:06:33;0.98;;;0.68;;
10880;SDS011;5493;48.884;8.338;2023-09-18T11:09:43;1.10;;;0.70;;
10880;SDS011;5493;48.884;8.338;2023-09-18T11:12:11;1.45;;;0.47;;
10880;SDS011;5493;48.884;8.338;2023-09-18T11:14:42;3.47;;;0.90;;
10880;SDS011;5493;48.884;8.338;2023-09-18T11:17:30;3.38;;;0.80;;
10880;SDS011;5493;48.884;8.338;2023-09-18T11:20:04;0.77;;;0.63;;
10880;SDS011;5493;48.884;8.338;2023-09-18T11:22:35;1.70;;;0.55;;
10880;SDS011;5493;48.884;8.338;2023-09-18T11:28:13;1.95;;;0.70;;
10880;SDS011;5493;48.884;8.338;2023-09-18T11:30:49;0.98;;;0.77;;
10880;SDS011;5493;48.884;8.338;2023-09-18T11:33:16;1.92;;;0.88;;
10880;SDS011;5493;48.884;8.338;2023-09-18T11:35:56;1.33;;;0.85;;
10880;SDS011;5493;48.884;8.338;2023-09-18T11:38:22;1.45;;;0.60;;
10880;SDS011;5493;48.884;8.338;2023-09-18T11:40:49;4.43;;;0.80;;
10880;SDS011;5493;48.884;8.338;2023-09-18T11:43:19;3.75;;;0.95;;
10880;SDS011;5493;48.884;8.338;2023-09-18T11:45:51;2.80;;;0.77;;
10880;SDS011;5493;48.884;8.338;2023-09-18T11:48:20;1.25;;;0.82;;
10880;SDS011;5493;48.884;8.338;2023-09-18T11:50:49;1.75;;;0.70;;
10880;SDS011;5493;48.884;8.338;2023-09-18T11:53:19;1.08;;;0.80;;
10880;SDS011;5493;48.884;8.338;2023-09-18T11:55:47;1.88;;;0.70;;
10880;SDS011;5493;48.884;8.338;2023-09-18T11:58:14;1.20;;;1.10;;
10880;SDS011;5493;48.884;8.338;2023-09-18T12:00:41;0.77;;;0.65;;
10880;SDS011;5493;48.884;8.338;2023-09-18T12:03:19;1.45;;;0.60;;
10880;SDS011;5493;48.884;8.338;2023-09-18T12:05:53;1.52;;;0.80;;
10880;SDS011;5493;48.884;8.338;2023-09-18T12:08:22;0.82;;;0.50;;
10880;SDS011;5493;48.884;8.338;2023-09-18T12:10:51;1.38;;;0.80;;
10880;SDS011;5493;48.884;8.338;2023-09-18T12:13:18;2.88;;;0.70;;
10880;SDS011;5493;48.884;8.338;2023-09-18T12:15:45;3.58;;;1.00;;
10880;SDS011;5493;48.884;8.338;2023-09-18T12:18:13;1.27;;;0.60;;
10880;SDS011;5493;48.884;8.338;2023-09-18T12:20:48;1.02;;;0.70;;
10880;SDS011;5493;48.884;8.338;2023-09-18T12:23:15;3.58;;;0.80;;
10880;SDS011;5493;48.884;8.338;2023-09-18T12:25:42;1.48;;;0.60;;
10880;SDS011;5493;48.884;8.338;2023-09-18T12:28:12;1.42;;;0.68;;
10880;SDS011;5493;48.884;8.338;2023-09-18T12:30:40;2.40;;;0.60;;
10880;SDS011;5493;48.884;8.338;2023-09-18T12:33:07;1.70;;;0.77;;
10880;SDS011;5493;48.884;8.338;2023-09-18T12:35:33;4.22;;;0.82;;
10880;SDS011;5493;48.884;8.338;2023-09-18T12:38:02;2.35;;;0.90;;
10880;SDS011;5493;48.884;8.338;2023-09-18T12:40:39;1.55;;;0.75;;
10880;SDS011;5493;48.884;8.338;2023-09-18T12:43:06;1.17;;;1.00;;
10880;SDS011;5493;48.884;8.338;2023-09-18T12:45:33;1.38;;;0.80;;
10880;SDS011;5493;48.884;8.338;2023-09-18T12:48:01;1.10;;;0.60;;
10880;SDS011;5493;48.884;8.338;2023-09-18T12:50:28;2.13;;;0.80;;
10880;SDS011;5493;48.884;8.338;2023-09-18T12:53:07;1.55;;;0.73;;
10880;SDS011;5493;48.884;8.338;2023-09-18T12:55:34;1.40;;;0.60;;
10880;SDS011;5493;48.884;8.338;2023-09-18T12:58:01;1.02;;;0.65;;
10880;SDS011;5493;48.884;8.338;2023-09-18T13:00:30;2.00;;;0.80;;
10880;SDS011;5493;48.884;8.338;2023-09-18T13:02:57;2.70;;;0.82;;
10880;SDS011;5493;48.884;8.338;2023-09-18T13:05:24;2.30;;;0.70;;
10880;SDS011;5493;48.884;8.338;2023-09-18T13:07:52;3.80;;;0.75;;
10880;SDS011;5493;48.884;8.338;2023-09-18T13:10:20;0.70;;;0.45;;
10880;SDS011;5493;48.884;8.338;2023-09-18T13:12:48;2.35;;;0.70;;
10880;SDS011;5493;48.884;8.338;2023-09-18T13:15:24;1.67;;;0.60;;
10880;SDS011;5493;48.884;8.338;2023-09-18T13:17:52;2.38;;;1.05;;
10880;SDS011;5493;48.884;8.338;2023-09-18T13:20:20;1.90;;;0.90;;
10880;SDS011;5493;48.884;8.338;2023-09-18T13:22:49;3.05;;;1.05;;
10880;SDS011;5493;48.884;8.338;2023-09-18T13:25:22;1.63;;;0.80;;
10880;SDS011;5493;48.884;8.338;2023-09-18T13:27:50;2.08;;;0.70;;
10880;SDS011;5493;48.884;8.338;2023-09-18T13:30:18;2.67;;;0.82;;
10880;SDS011;5493;48.884;8.338;2023-09-18T13:32:46;2.88;;;1.00;;
10880;SDS011;5493;48.884;8.338;2023-09-18T13:35:14;1.48;;;0.60;;
10880;SDS011;5493;48.884;8.338;2023-09-18T13:37:41;1.10;;;0.77;;
10880;SDS011;5493;48.884;8.338;2023-09-18T13:40:09;2.38;;;0.75;;
10880;SDS011;5493;48.884;8.338;2023-09-18T13:42:37;4.15;;;0.80;;
10880;SDS011;5493;48.884;8.338;2023-09-18T13:45:04;1.83;;;0.60;;
10880;SDS011;5493;48.884;8.338;2023-09-18T13:47:33;2.85;;;0.75;;
10880;SDS011;5493;48.884;8.338;2023-09-18T13:49:59;1.45;;;0.80;;
10880;SDS011;5493;48.884;8.338;2023-09-18T13:52:26;1.88;;;1.05;;
10880;SDS011;5493;48.884;8.338;2023-09-18T13:54:53;1.60;;;0.90;;
10880;SDS011;5493;48.884;8.338;2023-09-18T13:57:20;1.20;;;0.60;;
10880;SDS011;5493;48.884;8.338;2023-09-18T13:59:48;1.55;;;0.80;;
10880;SDS011;5493;48.884;8.338;2023-09-18T14:02:16;3.28;;;0.93;;
10880;SDS011;5493;48.884;8.338;2023-09-18T14:04:43;0.57;;;0.57;;
10880;SDS011;5493;48.884;8.338;2023-09-18T14:07:10;2.95;;;0.60;;
10880;SDS011;5493;48.884;8.338;2023-09-18T14:09:37;0.98;;;0.60;;
10880;SDS011;5493;48.884;8.338;2023-09-18T14:12:05;2.08;;;0.70;;
10880;SDS011;5493;48.884;8.338;2023-09-18T14:14:33;1.25;;;0.65;;
10880;SDS011;5493;48.884;8.338;2023-09-18T14:17:01;1.13;;;0.70;;
10880;SDS011;5493;48.884;8.338;2023-09-18T14:19:28;1.50;;;0.70;;
10880;SDS011;5493;48.884;8.338;2023-09-18T14:21:55;1.10;;;0.95;;
10880;SDS011;5493;48.884;8.338;2023-09-18T14:24:22;1.75;;;0.90;;
10880;SDS011;5493;48.884;8.338;2023-09-18T14:26:51;1.35;;;0.68;;
10880;SDS011;5493;48.884;8.338;2023-09-18T14:29:17;2.17;;;1.10;;
10880;SDS011;5493;48.884;8.338;2023-09-18T14:31:44;1.88;;;0.98;;
10880;SDS011;5493;48.884;8.338;2023-09-18T14:34:12;1.38;;;0.73;;
10880;SDS011;5493;48.884;8.338;2023-09-18T14:36:39;2.65;;;0.80;;
10880;SDS011;5493;48.884;8.338;2023-09-18T14:39:06;2.17;;;0.73;;
10880;SDS011;5493;48.884;8.338;2023-09-18T14:41:33;2.55;;;0.90;;
10880;SDS011;5493;48.884;8.338;2023-09-18T14:44:01;3.55;;;1.10;;
10880;SDS011;5493;48.884;8.338;2023-09-18T14:46:29;2.47;;;0.93;;
10880;SDS011;5493;48.884;8.338;2023-09-18T14:48:55;2.15;;;1.15;;
10880;SDS011;5493;48.884;8.338;2023-09-18T14:51:24;0.90;;;0.68;;
10880;SDS011;5493;48.884;8.338;2023-09-18T14:53:50;1.10;;;0.70;;
10880;SDS011;5493;48.884;8.338;2023-09-18T14:56:16;1.40;;;0.70;;
10880;SDS011;5493;48.884;8.338;2023-09-18T14:58:43;1.55;;;1.02;;
10880;SDS011;5493;48.884;8.338;2023-09-18T15:01:10;2.45;;;0.90;;
10880;SDS011;5493;48.884;8.338;2023-09-18T15:03:37;1.23;;;0.65;;
10880;SDS011;5493;48.884;8.338;2023-09-18T15:06:04;1.73;;;0.75;;
10880;SDS011;5493;48.884;8.338;2023-09-18T15:08:33;1.42;;;0.88;;